Time;durP1;ratioP1;P1;durP2;ratioP2;P2;SDS_P1;SDS_P2;PMS_P1;PMS_P2;Temp;Humidity;BMP_temperature;BMP_pressure;BME280_temperature;BME280_humidity;BME280_pressure;Samples;Min_cycle;Max_cycle;Signal;HPM_P1;HPM_P2
2021/10/15 00:00:19;;;;;;;3.43;2.73;;;11.10;99.90;;;;;;5011180;28;20446;-74
2021/10/15 00:02:45;;;;;;;4.20;2.70;;;11.10;99.90;;;;;;5050173;28;20504;-74
2021/10/15 00:05:10;;;;;;;3.90;3.30;;;11.00;99.90;;;;;;5015719;28;20218;-74
2021/10/15 00:07:36;;;;;;;10.87;6.97;;;11.00;99.90;;;;;;5016100;28;20216;-74
2021/10/15 00:10:03;;;;;;;11.40;8.00;;;11.00;99.90;;;;;;5017914;28;20222;-74
2021/10/15 00:12:29;;;;;;;7.43;5.77;;;11.00;99.90;;;;;;5035855;28;20212;-74
2021/10/15 00:14:55;;;;;;;7.90;4.70;;;10.90;99.90;;;;;;5036823;28;20508;-74
2021/10/15 00:17:21;;;;;;;4.17;3.77;;;10.90;99.90;;;;;;5034982;28;20224;-74
2021/10/15 00:19:46;;;;;;;3.90;3.43;;;10.90;99.90;;;;;;5035770;28;20230;-74
2021/10/15 00:22:12;;;;;;;4.70;3.43;;;10.80;99.90;;;;;;5019554;28;20281;-74
2021/10/15 00:24:38;;;;;;;4.50;2.80;;;10.80;99.90;;;;;;5036199;28;20228;-74
2021/10/15 00:27:04;;;;;;;4.03;3.17;;;10.80;99.90;;;;;;5018777;28;20446;-73
2021/10/15 00:29:30;;;;;;;3.90;2.70;;;10.80;99.90;;;;;;5035749;28;20306;-73
2021/10/15 00:31:55;;;;;;;4.03;3.63;;;10.80;99.90;;;;;;5019821;28;20262;-73
2021/10/15 00:34:21;;;;;;;11.30;3.43;;;10.70;99.90;;;;;;4996357;28;20221;-74
2021/10/15 00:36:47;;;;;;;4.00;3.17;;;10.70;99.90;;;;;;5026640;28;20216;-74
2021/10/15 00:39:12;;;;;;;3.70;3.30;;;10.70;99.90;;;;;;5017014;28;20239;-74
2021/10/15 00:41:38;;;;;;;5.73;3.03;;;10.70;99.90;;;;;;5013905;28;20212;-73
2021/10/15 00:44:09;;;;;;;3.63;2.87;;;10.70;99.90;;;;;;5013550;28;20239;-73
2021/10/15 00:46:37;;;;;;;4.43;3.23;;;10.70;99.90;;;;;;5035907;28;20208;-73
2021/10/15 00:49:11;;;;;;;10.77;6.47;;;10.70;99.90;;;;;;5018102;28;20515;-74
2021/10/15 00:51:37;;;;;;;13.97;7.20;;;10.70;99.90;;;;;;5035870;28;20493;-73
2021/10/15 00:54:04;;;;;;;9.57;5.73;;;10.60;99.90;;;;;;5018819;28;20473;-74
2021/10/15 00:56:31;;;;;;;6.23;5.00;;;10.60;99.90;;;;;;5035832;28;20856;-72
2021/10/15 00:59:00;;;;;;;10.17;4.43;;;10.50;99.90;;;;;;5017943;28;20448;-74
2021/10/15 01:01:26;;;;;;;6.93;4.70;;;10.50;99.90;;;;;;5027230;28;20438;-73
2021/10/15 01:03:52;;;;;;;9.40;4.90;;;10.50;99.90;;;;;;5015379;28;20501;-74
2021/10/15 01:06:18;;;;;;;10.20;6.27;;;10.50;99.90;;;;;;5031446;28;20502;-73
2021/10/15 01:08:48;;;;;;;12.40;6.80;;;10.50;99.90;;;;;;5015489;28;20228;-73
2021/10/15 01:11:15;;;;;;;8.73;5.67;;;10.50;99.90;;;;;;5017389;28;20207;-73
2021/10/15 01:13:42;;;;;;;6.97;4.77;;;10.50;99.90;;;;;;5035127;28;20451;-73
2021/10/15 01:16:09;;;;;;;6.00;4.50;;;10.50;99.90;;;;;;5018442;28;20813;-73
2021/10/15 01:18:36;;;;;;;10.20;5.00;;;10.50;99.90;;;;;;5017481;28;20504;-73
2021/10/15 01:21:03;;;;;;;7.40;4.90;;;10.40;99.90;;;;;;5034615;28;20481;-74
2021/10/15 01:23:29;;;;;;;6.60;4.27;;;10.40;99.90;;;;;;5035259;28;20462;-73
2021/10/15 01:25:55;;;;;;;9.20;4.70;;;10.40;99.90;;;;;;5018701;28;20489;-73
2021/10/15 01:28:26;;;;;;;6.23;4.13;;;10.40;99.90;;;;;;5018102;28;20251;-72
2021/10/15 01:30:53;;;;;;;7.60;3.77;;;10.30;99.90;;;;;;5002028;28;20456;-73
2021/10/15 01:33:19;;;;;;;4.30;3.63;;;10.30;99.90;;;;;;4998154;28;20440;-74
2021/10/15 01:35:45;;;;;;;5.33;4.00;;;10.30;99.90;;;;;;5013443;28;20447;-73
2021/10/15 01:38:12;;;;;;;4.03;3.30;;;10.30;99.90;;;;;;4998111;28;20463;-74
2021/10/15 01:40:38;;;;;;;5.07;3.50;;;10.30;99.90;;;;;;5013317;28;20555;-73
2021/10/15 01:43:04;;;;;;;5.60;3.70;;;10.20;99.90;;;;;;5001051;28;20452;-73
2021/10/15 01:45:31;;;;;;;4.40;3.77;;;10.20;99.90;;;;;;4995676;28;20448;-71
2021/10/15 01:47:57;;;;;;;4.80;3.80;;;10.20;99.90;;;;;;5011190;28;20285;-74
2021/10/15 01:50:26;;;;;;;6.27;4.17;;;10.20;99.90;;;;;;5024639;28;20447;-73
2021/10/15 01:52:52;;;;;;;5.10;4.00;;;10.10;99.90;;;;;;5031299;28;20498;-74
2021/10/15 01:55:20;;;;;;;4.10;3.70;;;10.10;99.90;;;;;;5014551;28;20497;-73
2021/10/15 01:57:46;;;;;;;4.20;2.90;;;10.10;99.90;;;;;;5030777;28;20477;-73
2021/10/15 02:00:13;;;;;;;4.23;3.37;;;10.00;99.90;;;;;;5030035;28;21022;-73
2021/10/15 02:02:42;;;;;;;5.33;4.00;;;10.00;99.90;;;;;;5030972;28;20444;-73
2021/10/15 02:05:10;;;;;;;5.67;4.57;;;9.90;99.90;;;;;;5014362;28;20455;-74
2021/10/15 02:07:37;;;;;;;6.30;4.07;;;9.90;99.90;;;;;;5031228;28;20471;-72
2021/10/15 02:10:04;;;;;;;5.27;4.33;;;9.90;99.90;;;;;;5013272;28;20487;-72
2021/10/15 02:12:30;;;;;;;6.00;3.83;;;9.90;99.90;;;;;;5030743;28;20439;-73
2021/10/15 02:14:56;;;;;;;5.10;3.40;;;9.80;99.90;;;;;;5014396;28;20458;-73
2021/10/15 02:17:21;;;;;;;4.70;4.00;;;9.80;99.90;;;;;;5030272;28;20208;-72
2021/10/15 02:19:47;;;;;;;10.83;5.37;;;9.70;99.90;;;;;;5013483;28;20235;-72
2021/10/15 02:22:13;;;;;;;5.40;4.17;;;9.70;99.90;;;;;;5030543;28;20624;-74
2021/10/15 02:24:38;;;;;;;5.83;4.30;;;9.70;99.90;;;;;;5014025;28;20575;-73
2021/10/15 02:27:04;;;;;;;5.97;4.30;;;9.70;99.90;;;;;;5032924;28;20219;-73
2021/10/15 02:29:30;;;;;;;5.67;3.77;;;9.70;99.90;;;;;;5026333;28;20218;-73
2021/10/15 02:31:56;;;;;;;5.43;4.10;;;9.70;99.90;;;;;;5033385;28;20246;-74
2021/10/15 02:34:21;;;;;;;4.70;4.20;;;9.70;99.90;;;;;;5017541;28;20430;-74
2021/10/15 02:36:47;;;;;;;9.00;4.83;;;9.70;99.90;;;;;;5023259;28;20548;-74
2021/10/15 02:39:13;;;;;;;6.10;4.87;;;9.70;99.90;;;;;;5018002;28;20243;-74
2021/10/15 02:41:40;;;;;;;7.10;5.10;;;9.70;99.90;;;;;;5034785;28;20199;-74
2021/10/15 02:44:10;;;;;;;13.63;7.30;;;9.70;99.90;;;;;;5033092;28;20468;-73
2021/10/15 02:46:38;;;;;;;6.57;5.23;;;9.60;99.90;;;;;;5017264;28;20485;-74
2021/10/15 02:49:04;;;;;;;8.40;4.80;;;9.60;99.90;;;;;;5032169;28;20533;-74
2021/10/15 02:51:31;;;;;;;9.23;5.33;;;9.60;99.90;;;;;;5033472;28;20454;-74
2021/10/15 02:53:57;;;;;;;9.30;5.47;;;9.60;99.90;;;;;;5033029;28;20455;-74
2021/10/15 02:56:23;;;;;;;5.23;4.40;;;9.60;99.90;;;;;;5017211;28;20446;-74
2021/10/15 02:58:49;;;;;;;6.40;4.90;;;9.60;99.90;;;;;;5015996;28;20219;-74
2021/10/15 03:01:15;;;;;;;5.57;4.90;;;9.60;99.90;;;;;;5032585;28;20531;-72
2021/10/15 03:03:41;;;;;;;9.20;4.93;;;9.60;99.90;;;;;;5033393;28;20951;-74
2021/10/15 03:06:07;;;;;;;4.37;3.70;;;9.50;99.90;;;;;;5033161;28;20342;-74
2021/10/15 03:08:33;;;;;;;6.80;4.50;;;9.50;99.90;;;;;;5032536;28;20222;-74
2021/10/15 03:10:58;;;;;;;7.47;5.00;;;9.40;99.90;;;;;;5032972;28;20450;-74
2021/10/15 03:13:24;;;;;;;5.17;4.40;;;9.40;99.90;;;;;;5016657;28;20208;-73
2021/10/15 03:15:50;;;;;;;5.47;4.27;;;9.40;99.90;;;;;;5033171;28;20689;-74
2021/10/15 03:18:17;;;;;;;10.53;5.30;;;9.40;99.90;;;;;;5032191;28;20454;-74
2021/10/15 03:20:42;;;;;;;5.03;4.00;;;9.40;99.90;;;;;;5016160;28;20223;-74
2021/10/15 03:23:09;;;;;;;5.40;4.57;;;9.40;99.90;;;;;;5032219;28;20442;-74
2021/10/15 03:25:34;;;;;;;6.50;4.83;;;9.40;99.90;;;;;;5032849;28;20219;-74
2021/10/15 03:28:00;;;;;;;5.90;3.80;;;9.40;99.90;;;;;;5015945;28;20450;-73
2021/10/15 03:30:27;;;;;;;10.80;4.90;;;9.30;99.90;;;;;;5032624;28;20227;-73
2021/10/15 03:32:53;;;;;;;7.00;4.87;;;9.30;99.90;;;;;;5015764;28;20224;-74
2021/10/15 03:35:18;;;;;;;8.57;4.90;;;9.30;99.90;;;;;;5012616;28;20874;-74
2021/10/15 03:37:45;;;;;;;5.50;4.23;;;9.30;99.90;;;;;;5012759;28;20247;-73
2021/10/15 03:40:11;;;;;;;10.03;5.17;;;9.30;99.90;;;;;;5012657;28;20224;-74
2021/10/15 03:42:37;;;;;;;9.27;5.17;;;9.30;99.90;;;;;;5032640;28;20446;-74
2021/10/15 03:45:05;;;;;;;10.50;6.30;;;9.30;99.90;;;;;;5049270;28;20454;-73
2021/10/15 03:47:32;;;;;;;7.63;5.13;;;9.20;99.90;;;;;;5032714;28;20449;-73
2021/10/15 03:49:58;;;;;;;9.57;5.93;;;9.20;99.90;;;;;;5031191;28;20457;-74
2021/10/15 03:52:24;;;;;;;10.27;6.10;;;9.20;99.90;;;;;;5032481;28;20840;-74
2021/10/15 03:54:49;;;;;;;12.47;5.77;;;9.20;99.90;;;;;;5023371;28;20299;-74
2021/10/15 03:57:15;;;;;;;7.77;6.23;;;9.20;99.90;;;;;;5031920;28;20634;-74
2021/10/15 03:59:41;;;;;;;8.47;5.60;;;9.30;99.90;;;;;;5015678;28;20660;-73
2021/10/15 04:02:06;;;;;;;12.30;6.83;;;9.20;99.90;;;;;;5015414;28;20670;-74
2021/10/15 04:04:32;;;;;;;6.57;5.30;;;9.20;99.90;;;;;;5032447;28;20215;-73
2021/10/15 04:06:57;;;;;;;6.87;5.53;;;9.20;99.90;;;;;;5031949;28;20697;-74
2021/10/15 04:09:23;;;;;;;9.93;6.53;;;9.10;99.90;;;;;;5015412;28;20742;-72
2021/10/15 04:11:49;;;;;;;9.40;5.97;;;9.10;99.90;;;;;;5015988;28;20306;-73
2021/10/15 04:14:15;;;;;;;7.63;5.30;;;9.10;99.90;;;;;;5014614;28;20220;-73
2021/10/15 04:16:40;;;;;;;7.73;5.50;;;9.00;99.90;;;;;;5015715;28;20351;-73
2021/10/15 04:19:06;;;;;;;6.60;4.87;;;9.00;99.90;;;;;;5014273;28;20314;-73
2021/10/15 04:21:32;;;;;;;7.03;5.70;;;9.00;99.90;;;;;;5012361;28;20212;-73
2021/10/15 04:23:58;;;;;;;8.47;5.17;;;9.00;99.90;;;;;;5028118;28;20227;-74
2021/10/15 04:26:24;;;;;;;7.23;5.53;;;9.00;99.90;;;;;;5031382;28;20708;-73
2021/10/15 04:28:49;;;;;;;9.23;5.70;;;9.00;99.90;;;;;;5049501;28;20543;-73
2021/10/15 04:31:16;;;;;;;10.17;5.57;;;9.00;99.90;;;;;;5013896;28;20269;-73
2021/10/15 04:33:42;;;;;;;10.90;5.37;;;9.00;99.90;;;;;;5031678;28;20220;-73
2021/10/15 04:36:08;;;;;;;6.33;5.27;;;9.00;99.90;;;;;;5014423;28;21074;-74
2021/10/15 04:38:33;;;;;;;7.50;4.90;;;9.00;99.90;;;;;;5013961;28;20224;-73
2021/10/15 04:40:59;;;;;;;10.00;5.80;;;9.00;99.90;;;;;;5031717;28;20319;-74
2021/10/15 04:43:25;;;;;;;7.27;4.53;;;9.00;99.90;;;;;;5016050;28;20227;-74
2021/10/15 04:45:51;;;;;;;7.97;5.80;;;9.00;99.90;;;;;;5049098;28;20727;-74
2021/10/15 04:48:16;;;;;;;9.80;6.43;;;9.00;99.90;;;;;;5015001;28;20231;-72
2021/10/15 04:50:42;;;;;;;8.43;5.93;;;9.00;99.90;;;;;;5014675;28;20766;-74
2021/10/15 04:53:08;;;;;;;11.03;7.80;;;9.00;99.90;;;;;;5014605;28;20298;-74
2021/10/15 04:55:35;;;;;;;13.20;8.10;;;9.00;99.90;;;;;;5050950;28;20215;-73
2021/10/15 04:58:02;;;;;;;11.30;7.23;;;8.90;99.90;;;;;;5014913;28;20521;-74
2021/10/15 05:00:30;;;;;;;18.50;7.40;;;8.90;99.90;;;;;;5017467;28;20455;-73
2021/10/15 05:02:56;;;;;;;9.50;7.23;;;8.90;99.90;;;;;;5015786;28;20455;-73
2021/10/15 05:05:27;;;;;;;10.57;7.63;;;8.80;99.90;;;;;;5018139;28;21052;-74
2021/10/15 05:07:53;;;;;;;11.60;7.57;;;8.80;99.90;;;;;;5018585;28;20546;-73
2021/10/15 05:10:23;;;;;;;10.37;7.10;;;8.80;99.90;;;;;;5034520;28;20492;-74
2021/10/15 05:12:50;;;;;;;11.30;7.77;;;8.70;99.90;;;;;;5018569;28;20462;-74
2021/10/15 05:15:17;;;;;;;10.37;6.43;;;8.70;99.90;;;;;;5034781;28;24754;-74
2021/10/15 05:17:43;;;;;;;10.20;6.67;;;8.70;99.90;;;;;;5018656;28;20466;-73
2021/10/15 05:20:11;;;;;;;11.80;6.70;;;8.70;99.90;;;;;;5033310;28;20472;-73
2021/10/15 05:22:38;;;;;;;9.57;6.20;;;8.70;99.90;;;;;;5033964;28;20211;-74
2021/10/15 05:25:06;;;;;;;9.77;6.30;;;8.70;99.90;;;;;;5033683;28;20453;-73
2021/10/15 05:27:32;;;;;;;8.47;6.17;;;8.70;99.90;;;;;;5018120;28;20446;-74
2021/10/15 05:29:58;;;;;;;9.70;7.27;;;8.70;99.90;;;;;;5031783;28;20473;-74
2021/10/15 05:32:24;;;;;;;9.13;7.47;;;8.60;99.90;;;;;;5052162;28;20499;-73
2021/10/15 05:34:51;;;;;;;8.70;6.50;;;8.60;99.90;;;;;;5017946;28;20446;-73
2021/10/15 05:37:17;;;;;;;11.00;7.50;;;8.60;99.90;;;;;;5014391;28;20463;-74
2021/10/15 05:39:44;;;;;;;10.70;7.30;;;8.60;99.90;;;;;;5015247;28;20475;-74
2021/10/15 05:42:10;;;;;;;9.17;6.07;;;8.60;99.90;;;;;;5033418;28;20442;-74
2021/10/15 05:44:36;;;;;;;8.93;6.20;;;8.60;99.90;;;;;;5018146;28;20473;-74
2021/10/15 05:47:04;;;;;;;10.57;6.60;;;8.60;99.90;;;;;;5017744;28;20597;-73
2021/10/15 05:49:36;;;;;;;15.00;7.50;;;8.60;99.90;;;;;;5052031;28;20220;-73
2021/10/15 05:52:04;;;;;;;9.10;6.40;;;8.60;99.90;;;;;;5033212;28;20463;-73
2021/10/15 05:54:41;;;;;;;9.40;6.17;;;8.60;99.90;;;;;;5052370;28;20555;-72
2021/10/15 05:59:42;;;;;;;9.87;6.13;;;8.70;99.90;;;;;;5033671;28;20527;-74
2021/10/15 06:02:08;;;;;;;12.53;6.50;;;8.70;99.90;;;;;;5031964;28;20457;-74
2021/10/15 06:15:27;;;;;;;7.87;6.40;;;8.70;99.90;;;;;;5031261;28;20526;-74
2021/10/15 06:17:53;;;;;;;12.40;6.87;;;8.70;99.90;;;;;;5000374;28;20452;-73
2021/10/15 06:20:19;;;;;;;13.40;7.70;;;8.70;99.90;;;;;;5010245;28;20838;-73
2021/10/15 06:22:44;;;;;;;12.77;8.13;;;8.70;99.90;;;;;;5012407;28;20300;-73
2021/10/15 06:25:10;;;;;;;9.43;6.83;;;8.70;99.90;;;;;;5001354;28;20225;-74
2021/10/15 06:27:36;;;;;;;11.53;6.80;;;8.70;99.90;;;;;;5030704;28;20224;-72
2021/10/15 06:30:03;;;;;;;11.07;7.30;;;8.70;99.90;;;;;;5009892;28;20721;-74
2021/10/15 06:32:29;;;;;;;10.00;7.17;;;8.70;99.90;;;;;;5010951;28;20227;-73
2021/10/15 06:34:54;;;;;;;9.77;6.90;;;8.70;99.90;;;;;;5027757;28;20464;-74
2021/10/15 06:37:20;;;;;;;7.20;5.83;;;8.70;99.90;;;;;;5010069;28;20220;-74
2021/10/15 06:39:46;;;;;;;8.90;6.47;;;8.70;99.90;;;;;;5008321;28;20216;-73
2021/10/15 06:42:11;;;;;;;8.70;6.23;;;8.70;99.90;;;;;;5031179;28;20244;-73
2021/10/15 06:44:37;;;;;;;11.77;7.73;;;8.70;99.90;;;;;;5011439;28;20289;-74
2021/10/15 06:47:03;;;;;;;8.33;6.50;;;8.70;99.90;;;;;;5016129;28;20216;-74
2021/10/15 06:49:28;;;;;;;8.10;6.97;;;8.70;99.90;;;;;;5033188;28;20224;-73
2021/10/15 06:51:54;;;;;;;13.43;7.50;;;8.70;99.90;;;;;;5017082;28;20234;-73
2021/10/15 06:54:20;;;;;;;7.10;5.97;;;8.70;99.90;;;;;;5016659;28;20211;-74
2021/10/15 06:56:46;;;;;;;10.67;7.20;;;8.70;99.90;;;;;;5013584;28;20439;-74
2021/10/15 06:59:12;;;;;;;10.53;6.90;;;8.80;99.90;;;;;;5032571;28;20220;-74
2021/10/15 07:01:37;;;;;;;6.93;5.60;;;8.70;99.90;;;;;;5050763;28;20211;-74
2021/10/15 07:04:03;;;;;;;13.63;6.90;;;8.80;99.90;;;;;;5032814;28;20216;-74
2021/10/15 07:06:30;;;;;;;11.57;6.30;;;8.80;99.90;;;;;;5016180;28;20212;-74
2021/10/15 07:08:57;;;;;;;9.30;5.77;;;8.80;99.90;;;;;;5032770;28;20223;-74
2021/10/15 07:11:22;;;;;;;10.73;7.80;;;8.80;99.90;;;;;;5050625;28;20438;-74
2021/10/15 07:13:48;;;;;;;7.47;6.20;;;8.80;99.90;;;;;;5051143;28;20459;-74
2021/10/15 07:16:14;;;;;;;8.57;6.70;;;8.80;99.90;;;;;;5032765;28;20708;-74
2021/10/15 07:18:40;;;;;;;11.03;7.70;;;8.80;99.90;;;;;;5015625;28;20246;-74
2021/10/15 07:21:07;;;;;;;8.13;6.30;;;8.80;99.90;;;;;;5032460;28;20239;-74
2021/10/15 07:23:33;;;;;;;8.80;7.40;;;8.80;99.90;;;;;;5016693;28;20963;-73
2021/10/15 07:26:03;;;;;;;9.40;7.17;;;8.90;99.90;;;;;;5016191;28;20468;-75
2021/10/15 07:28:29;;;;;;;12.07;8.10;;;8.90;99.90;;;;;;5015571;28;20446;-73
2021/10/15 07:30:58;;;;;;;9.40;6.90;;;8.90;99.90;;;;;;5032465;28;20971;-74
2021/10/15 07:33:23;;;;;;;12.47;9.20;;;8.90;99.90;;;;;;5046944;28;20451;-74
2021/10/15 07:35:49;;;;;;;11.97;8.57;;;8.90;99.90;;;;;;5013014;28;20463;-74
2021/10/15 07:38:15;;;;;;;11.70;8.47;;;8.90;99.90;;;;;;5020562;28;20325;-74
2021/10/15 07:40:41;;;;;;;16.53;9.10;;;8.90;99.90;;;;;;5032419;28;20246;-75
2021/10/15 07:43:06;;;;;;;12.33;8.80;;;8.90;99.90;;;;;;5031268;28;20697;-75
2021/10/15 07:45:33;;;;;;;13.80;8.60;;;8.90;99.90;;;;;;5032196;28;20219;-73
2021/10/15 07:47:59;;;;;;;13.47;8.53;;;8.90;99.90;;;;;;5020173;28;20231;-72
2021/10/15 07:50:24;;;;;;;13.17;8.83;;;9.00;99.90;;;;;;5016514;28;20484;-72
2021/10/15 07:52:50;;;;;;;12.90;9.53;;;9.00;99.90;;;;;;5016203;28;20462;-75
2021/10/15 07:55:16;;;;;;;13.53;8.77;;;9.00;99.90;;;;;;5015788;28;20713;-74
2021/10/15 07:57:42;;;;;;;11.23;8.03;;;9.00;99.90;;;;;;5012491;28;20208;-74
2021/10/15 08:00:10;;;;;;;10.50;7.50;;;9.10;99.90;;;;;;5000893;28;20472;-74
2021/10/15 08:02:39;;;;;;;13.03;8.50;;;9.10;99.90;;;;;;5031451;28;20219;-74
2021/10/15 08:05:06;;;;;;;10.00;7.83;;;9.10;99.90;;;;;;5031717;28;20450;-74
2021/10/15 08:07:32;;;;;;;13.30;7.53;;;9.20;99.90;;;;;;5032415;28;20466;-74
2021/10/15 08:09:58;;;;;;;12.60;7.60;;;9.20;99.90;;;;;;5013928;28;20482;-75
2021/10/15 08:12:23;;;;;;;14.33;8.07;;;9.30;99.90;;;;;;5015441;28;20222;-73
2021/10/15 08:14:49;;;;;;;11.77;7.50;;;9.30;99.90;;;;;;5012307;28;20463;-74
2021/10/15 08:17:15;;;;;;;13.97;8.30;;;9.30;99.90;;;;;;5013370;28;20247;-75
2021/10/15 08:19:41;;;;;;;10.07;7.63;;;9.40;99.90;;;;;;5031154;28;20681;-75
2021/10/15 08:22:07;;;;;;;12.90;8.73;;;9.40;99.90;;;;;;5015099;28;20212;-73
2021/10/15 08:24:33;;;;;;;10.70;7.50;;;9.40;99.90;;;;;;5049583;28;20223;-74
2021/10/15 08:26:59;;;;;;;9.47;7.30;;;9.50;99.90;;;;;;5031609;28;20450;-74
2021/10/15 08:29:25;;;;;;;10.80;8.50;;;9.60;99.90;;;;;;5015214;28;20220;-73
2021/10/15 08:31:51;;;;;;;12.40;8.50;;;9.70;99.90;;;;;;5035215;28;20457;-75
2021/10/15 08:34:18;;;;;;;9.77;8.03;;;9.70;99.90;;;;;;5018985;28;20225;-75
2021/10/15 08:36:47;;;;;;;16.03;8.20;;;9.80;99.90;;;;;;5032990;28;20485;-74
2021/10/15 08:39:17;;;;;;;16.23;8.40;;;9.90;99.90;;;;;;5034535;28;20466;-75
2021/10/15 08:41:42;;;;;;;14.10;8.07;;;9.90;99.90;;;;;;5035765;28;20447;-74
2021/10/15 08:44:08;;;;;;;16.07;8.27;;;10.00;99.90;;;;;;5034641;28;20515;-74
2021/10/15 08:46:35;;;;;;;12.80;8.20;;;10.10;99.90;;;;;;5035287;28;20216;-71
2021/10/15 08:49:02;;;;;;;15.17;9.30;;;10.20;99.90;;;;;;5046546;28;20216;-74
2021/10/15 08:51:28;;;;;;;14.13;9.07;;;10.30;99.90;;;;;;4999851;28;20447;-73
2021/10/15 08:53:58;;;;;;;12.80;8.57;;;10.30;99.90;;;;;;5022945;28;20484;-74
2021/10/15 08:56:27;;;;;;;13.40;9.03;;;10.40;99.90;;;;;;5035198;28;20435;-74
2021/10/15 08:59:02;;;;;;;14.83;8.43;;;10.50;99.90;;;;;;5035212;28;20461;-73
2021/10/15 09:01:39;;;;;;;13.37;8.73;;;10.50;99.90;;;;;;5052447;28;20987;-74
2021/10/15 09:04:05;;;;;;;12.07;7.30;;;10.60;99.90;;;;;;5051636;28;20462;-74
2021/10/15 09:06:36;;;;;;;12.27;8.07;;;10.60;99.90;;;;;;5019060;28;20476;-74
2021/10/15 09:09:02;;;;;;;12.43;8.50;;;10.70;99.90;;;;;;5032793;28;20462;-74
2021/10/15 09:11:39;;;;;;;16.20;7.50;;;10.70;99.90;;;;;;5034303;28;20485;-74
2021/10/15 09:14:17;;;;;;;12.70;9.07;;;10.80;99.90;;;;;;5017941;28;20461;-74
2021/10/15 09:17:03;;;;;;;9.50;8.07;;;10.80;99.90;;;;;;5018911;28;20482;-74
2021/10/15 09:19:41;;;;;;;13.60;7.70;;;10.80;99.90;;;;;;5034281;28;20546;-73
2021/10/15 09:22:22;;;;;;;14.80;9.60;;;10.90;99.90;;;;;;5030579;28;20596;-74
2021/10/15 09:24:51;;;;;;;10.00;7.10;;;10.90;99.90;;;;;;5034470;28;20451;-74
2021/10/15 09:27:19;;;;;;;13.70;7.87;;;10.90;99.90;;;;;;5031889;28;20461;-74
2021/10/15 09:29:47;;;;;;;12.03;7.80;;;11.00;99.90;;;;;;5012852;28;20480;-74
2021/10/15 09:32:13;;;;;;;12.17;8.93;;;11.00;99.90;;;;;;5018020;28;20446;-75
2021/10/15 09:34:39;;;;;;;21.90;16.30;;;11.00;99.90;;;;;;5051574;28;21006;-74
2021/10/15 09:37:25;;;;;;;55.00;37.90;;;11.00;99.90;;;;;;5017529;28;20220;-74
2021/10/15 09:40:09;;;;;;;48.13;33.70;;;11.10;99.90;;;;;;5017378;28;20703;-74
2021/10/15 09:42:56;;;;;;;79.90;43.13;;;11.10;99.90;;;;;;5016410;28;20452;-74
2021/10/15 09:45:31;;;;;;;79.90;47.60;;;11.10;99.90;;;;;;5016750;28;20873;-74
2021/10/15 09:47:59;;;;;;;30.90;17.73;;;11.20;99.90;;;;;;5033941;28;20438;-74
2021/10/15 09:50:30;;;;;;;18.40;13.73;;;11.20;99.90;;;;;;5017073;28;20457;-72
2021/10/15 09:52:58;;;;;;;13.20;10.57;;;11.20;99.90;;;;;;5034352;28;20442;-74
2021/10/15 09:55:31;;;;;;;11.83;7.47;;;11.20;99.90;;;;;;5034194;28;20442;-74
2021/10/15 09:58:21;;;;;;;8.70;6.63;;;11.30;99.90;;;;;;5033373;28;20446;-74
2021/10/15 10:00:54;;;;;;;7.07;5.33;;;11.30;99.90;;;;;;5028863;28;20466;-74
2021/10/15 10:03:22;;;;;;;7.93;6.73;;;11.40;99.90;;;;;;5026103;28;20524;-75
2021/10/15 10:05:49;;;;;;;7.37;5.73;;;11.40;99.90;;;;;;5017847;28;20447;-74
2021/10/15 10:08:15;;;;;;;6.77;5.70;;;11.40;99.90;;;;;;5033612;28;20500;-74
2021/10/15 10:10:43;;;;;;;6.93;4.83;;;11.50;99.90;;;;;;5017379;28;20459;-74
2021/10/15 10:13:12;;;;;;;5.70;5.00;;;11.60;99.90;;;;;;5033173;28;20453;-74
2021/10/15 10:15:42;;;;;;;7.10;5.30;;;11.60;99.90;;;;;;5017626;28;20461;-74
2021/10/15 10:18:16;;;;;;;7.10;4.60;;;11.60;99.90;;;;;;5032891;28;20451;-75
2021/10/15 10:21:17;;;;;;;11.73;5.07;;;11.70;99.90;;;;;;5033788;28;20545;-75
2021/10/15 10:23:55;;;;;;;8.23;4.77;;;11.70;99.90;;;;;;5024195;28;20446;-74
2021/10/15 10:26:22;;;;;;;4.87;4.47;;;11.80;99.90;;;;;;5033636;28;20544;-74
2021/10/15 10:29:05;;;;;;;7.53;5.27;;;11.90;99.90;;;;;;5017067;28;20463;-75
2021/10/15 10:31:32;;;;;;;10.30;4.90;;;12.10;99.90;;;;;;5005971;28;20498;-74
2021/10/15 10:34:01;;;;;;;16.73;10.63;;;12.10;99.90;;;;;;5021109;28;20455;-74
2021/10/15 10:36:28;;;;;;;17.70;10.57;;;12.20;99.90;;;;;;5013888;28;21069;-74
2021/10/15 10:38:55;;;;;;;15.37;9.97;;;12.20;99.90;;;;;;5009273;28;20478;-74
2021/10/15 10:41:27;;;;;;;23.87;13.97;;;12.40;99.90;;;;;;5032210;28;20455;-74
2021/10/15 10:43:53;;;;;;;19.00;11.63;;;12.50;99.90;;;;;;5017455;28;20529;-74
2021/10/15 10:46:22;;;;;;;13.50;9.60;;;12.60;99.90;;;;;;5015355;28;20976;-75
2021/10/15 10:48:51;;;;;;;11.70;6.67;;;12.80;99.90;;;;;;5016526;28;20273;-75
2021/10/15 10:51:23;;;;;;;27.17;16.80;;;12.90;99.90;;;;;;5032422;28;20516;-74
2021/10/15 10:54:08;;;;;;;20.00;14.40;;;13.00;99.90;;;;;;5033254;28;20459;-74
2021/10/15 10:56:43;;;;;;;29.63;18.87;;;13.10;99.90;;;;;;5016829;28;20454;-75
2021/10/15 11:01:58;;;;;;;10.30;7.60;;;13.30;99.90;;;;;;5033178;28;20544;-75
2021/10/15 11:04:34;;;;;;;6.20;5.60;;;13.50;99.90;;;;;;5051705;28;20454;-75
2021/10/15 11:07:00;;;;;;;7.20;3.93;;;13.60;99.90;;;;;;5050360;28;20510;-74
2021/10/15 11:09:51;;;;;;;5.00;4.10;;;13.70;99.90;;;;;;5050062;28;20533;-74
2021/10/15 11:12:42;;;;;;;7.73;4.03;;;13.80;99.90;;;;;;5032502;28;20548;-75
2021/10/15 11:15:12;;;;;;;4.10;3.33;;;13.90;99.90;;;;;;5015533;28;20466;-74
2021/10/15 11:17:49;;;;;;;4.57;3.00;;;14.00;99.90;;;;;;5050401;28;20456;-74
2021/10/15 11:20:23;;;;;;;4.57;3.50;;;14.10;99.90;;;;;;5015423;28;20520;-74
2021/10/15 11:22:53;;;;;;;9.23;4.60;;;14.20;99.90;;;;;;5032771;28;20457;-76
2021/10/15 11:25:20;;;;;;;4.03;3.30;;;14.40;99.90;;;;;;5032001;28;20443;-75
2021/10/15 11:27:55;;;;;;;4.23;3.00;;;14.50;99.90;;;;;;5030336;28;21062;-75
2021/10/15 11:30:23;;;;;;;4.50;3.10;;;14.60;99.90;;;;;;5031603;28;20445;-75
2021/10/15 11:32:50;;;;;;;5.87;3.47;;;14.70;99.90;;;;;;5016004;28;20512;-74
2021/10/15 11:35:26;;;;;;;12.67;7.90;;;14.80;99.90;;;;;;5015489;28;20462;-75
2021/10/15 11:37:54;;;;;;;18.73;10.13;;;15.00;99.90;;;;;;5015957;28;20476;-75
2021/10/15 11:40:37;;;;;;;10.40;8.27;;;15.10;99.90;;;;;;5014722;28;20458;-75
2021/10/15 11:43:27;;;;;;;14.27;10.33;;;15.20;99.90;;;;;;5015287;28;20456;-75
2021/10/15 11:46:03;;;;;;;20.20;12.47;;;15.40;99.90;;;;;;5016062;28;20553;-74
2021/10/15 11:48:37;;;;;;;22.37;13.90;;;15.50;99.90;;;;;;5015195;28;20820;-74
2021/10/15 11:51:06;;;;;;;47.43;28.20;;;15.60;99.90;;;;;;5014638;28;20482;-75
2021/10/15 11:53:43;;;;;;;30.00;17.53;;;15.70;99.90;;;;;;5032052;28;20450;-74
2021/10/15 11:56:16;;;;;;;29.73;16.80;;;15.80;99.90;;;;;;5028767;28;20462;-75
2021/10/15 11:58:43;;;;;;;40.83;23.10;;;15.80;99.90;;;;;;5030317;28;20457;-75
2021/10/15 12:01:12;;;;;;;37.70;20.60;;;15.90;99.90;;;;;;5014287;28;20499;-75
2021/10/15 12:03:42;;;;;;;29.27;16.83;;;16.10;99.90;;;;;;5030717;28;20455;-75
2021/10/15 12:06:10;;;;;;;23.90;14.00;;;16.20;99.90;;;;;;5030287;28;20462;-75
2021/10/15 12:08:36;;;;;;;26.53;16.87;;;16.30;99.90;;;;;;5018699;28;20551;-75
2021/10/15 12:11:03;;;;;;;34.13;24.57;;;16.30;99.90;;;;;;5018126;28;20535;-75
2021/10/15 12:13:29;;;;;;;37.10;24.50;;;16.40;99.90;;;;;;5015691;28;20508;-75
2021/10/15 12:15:54;;;;;;;21.30;16.27;;;16.40;99.90;;;;;;5015500;28;20447;-75
2021/10/15 12:18:29;;;;;;;14.00;10.87;;;16.40;99.90;;;;;;5013103;28;20474;-75
2021/10/15 12:21:09;;;;;;;9.93;8.70;;;16.50;99.90;;;;;;5012413;28;20231;-74
2021/10/15 12:23:54;;;;;;;7.47;5.77;;;16.70;99.90;;;;;;5028577;28;20566;-74
2021/10/15 12:26:22;;;;;;;8.60;4.37;;;16.70;99.90;;;;;;4995526;28;20972;-75
2021/10/15 12:28:48;;;;;;;4.07;3.67;;;16.80;99.90;;;;;;5028870;28;20888;-75
2021/10/15 12:31:34;;;;;;;20.37;12.00;;;16.80;99.90;;;;;;5015111;28;20466;-75
2021/10/15 12:34:09;;;;;;;18.37;12.93;;;16.80;99.90;;;;;;5031430;28;20486;-75
2021/10/15 12:36:36;;;;;;;17.57;11.97;;;16.80;99.90;;;;;;5014557;28;20502;-72
2021/10/15 12:39:15;;;;;;;16.27;13.07;;;16.70;99.90;;;;;;5014181;28;20471;-75
2021/10/15 12:41:41;;;;;;;11.57;8.23;;;16.70;99.90;;;;;;5015234;28;20999;-75
2021/10/15 12:44:26;;;;;;;9.90;7.33;;;16.70;99.90;;;;;;5012908;28;20519;-75
2021/10/15 12:47:01;;;;;;;13.93;8.83;;;16.70;99.90;;;;;;5015260;28;20281;-74
2021/10/15 12:49:28;;;;;;;9.60;7.03;;;16.70;99.90;;;;;;5014931;28;20480;-74
2021/10/15 12:51:53;;;;;;;6.80;4.70;;;16.60;99.90;;;;;;5015643;28;20458;-74
2021/10/15 12:54:43;;;;;;;4.23;3.23;;;16.60;99.90;;;;;;5048566;28;20458;-75
2021/10/15 12:57:13;;;;;;;3.50;3.20;;;16.60;99.90;;;;;;5012194;28;20733;-75
2021/10/15 12:59:39;;;;;;;5.10;3.90;;;16.50;99.90;;;;;;4995128;28;20494;-75
2021/10/15 13:02:07;;;;;;;2.30;2.20;;;16.50;99.90;;;;;;5000914;28;20463;-75
2021/10/15 13:04:37;;;;;;;2.40;2.30;;;16.50;99.90;;;;;;5031526;28;20485;-74
2021/10/15 13:07:03;;;;;;;3.00;2.30;;;16.50;99.90;;;;;;5030812;28;20525;-74